Apiliotis — SYVY — position and weather

sailwx.info

Track history (hours):
 
Tides and Currents Weather Stations Pressure Air Temp Water Temp Dewpoint Dewpoint Depression Visibility Wind Speed Wind Dir Waves Ship Positions

Apiliotis

Last reported at 2016-May-27 17:33 UTC. Time now 2016-May-30 07:00 UTC.
Position N 37°06' E 024°59'.

Length 79 m; draft 4.5 m.

Type: Ship. MMSI: 240438000.

Date/timePositionNaut miles runAvg speedWind from/ knotsBaromVisibWave heightAir tempDewpointWater temp
2016-May-27 17:33N 37°06' E 024°59'11 1.7
2016-May-27 11:32N 37°09' E 025°12'9 9.3
2016-May-27 10:33N 37°06' E 025°22'1 0.6
2016-May-27 09:33N 37°06' E 025°22'1 0.6
2016-May-27 08:34N 37°06' E 025°22'1 0.6
2016-May-27 07:33N 37°06' E 025°22'5 4.9
2016-May-27 06:34N 37°02' E 025°19'49 5.5
2016-May-26 21:33N 37°20' E 024°21'21 3.3
2016-May-26 15:09N 37°31' E 024°44'14 1.6
2016-May-26 06:32N 37°26' E 025°00'1111.5
2016-May-26 05:34N 37°27' E 025°14'4 4.1
2016-May-26 04:33N 37°28' E 025°19'0 0.0
2016-May-26 03:34N 37°28' E 025°19'0 0.0
2016-May-26 02:33N 37°28' E 025°19'9 9.4
2016-May-26 01:34N 37°37' E 025°21'1211.7
2016-May-26 00:33N 37°48' E 025°26'123 3.1
2016-May-24 08:29N 39°50' E 025°02'3 0.4
2016-May-23 23:33N 39°51' E 024°59'3611.6
2016-May-23 20:27N 39°37' E 024°16'  
Track history (hours):
 
Tides and Currents Weather Stations Pressure Air Temp Water Temp Dewpoint Dewpoint Depression Visibility Wind Speed Wind Dir Waves Ship Positions

Apiliotis

Last reported at 2016-May-27 17:33 UTC. Time now 2016-May-30 07:00 UTC.
Position N 37°06' E 024°59'.

Length 79 m; draft 4.5 m.

Type: Ship. MMSI: 240438000.

Date/timePositionNaut miles runAvg speedWind from/ knotsBaromVisibWave heightAir tempDewpointWater temp
2016-May-27 17:33N 37°06' E 024°59'11 1.7
2016-May-27 11:32N 37°09' E 025°12'9 9.3
2016-May-27 10:33N 37°06' E 025°22'1 0.6
2016-May-27 09:33N 37°06' E 025°22'1 0.6
2016-May-27 08:34N 37°06' E 025°22'1 0.6
2016-May-27 07:33N 37°06' E 025°22'5 4.9
2016-May-27 06:34N 37°02' E 025°19'49 5.5
2016-May-26 21:33N 37°20' E 024°21'21 3.3
2016-May-26 15:09N 37°31' E 024°44'14 1.6
2016-May-26 06:32N 37°26' E 025°00'1111.5
2016-May-26 05:34N 37°27' E 025°14'4 4.1
2016-May-26 04:33N 37°28' E 025°19'0 0.0
2016-May-26 03:34N 37°28' E 025°19'0 0.0
2016-May-26 02:33N 37°28' E 025°19'9 9.4
2016-May-26 01:34N 37°37' E 025°21'1211.7
2016-May-26 00:33N 37°48' E 025°26'123 3.1
2016-May-24 08:29N 39°50' E 025°02'3 0.4
2016-May-23 23:33N 39°51' E 024°59'3611.6
2016-May-23 20:27N 39°37' E 024°16'  

Dump ship's entire track history